LFJL 191930Z AUTO 34005KT CAVOK 23/17 Q1020 BECMG 17010KT LFJL 191900Z AUTO 32005KT CAVOK 24/17 Q1020 TEMPO SHRA FEW060TCU BECMG 17010KT LFJL 191830Z AUTO 29008KT CAVOK 26/17 Q1020 TEMPO SHRA FEW060TCU BECMG 17010KT LFJL 191800Z AUTO 27008KT 240V300 9999 //////CB 28/18 Q1020 TEMPO SHRA BECMG 17010KT LFJL 191730Z AUTO 21005KT 180V280 9999 VCTS ///CB 28/17 Q1019 TEMPO SHRA LFJL 191700Z AUTO 18006KT 9999 //////CB 27/18 Q1019 TEMPO SHRA LFJL 191630Z AUTO 21007KT 9999 //////CB 28/17 Q1019 TEMPO SHRA LFJL 191600Z AUTO 22010KT 9999 //////TCU 28/17 Q1019 TEMPO SHRA FEW060CB LFJL 191530Z AUTO 21006KT 180V250 9999 //////CB 27/18 Q1019 TEMPO SHRA LFJL 191500Z AUTO 21008KT 190V250 9999 FEW031/// SCT052/// BKN130/// //////CB 24/19 Q1019 TEMPO 28015G30KT 1200 TSRA LFJL 191430Z AUTO 19013KT 9999 //////CB 25/17 Q1019 TEMPO 28015G30KT 1200 TSRA LFJL 191400Z AUTO 20014KT 9999 VCTS VV/// //////CB 26/16 Q1020 TEMPO 28015G30KT 1200 TSRA SCT055CB LFJL 191330Z AUTO 22011KT 9999 VCTS ///CB 28/15 Q1019 TEMPO 28015G30KT 1200 TSRA LFJL 191300Z AUTO 25010KT 210V270 CAVOK 29/16 Q1019 TEMPO 28015G30KT 1200 TSRA SCT055CB LFJL 191230Z AUTO 24012KT CAVOK 30/16 Q1019 TEMPO 28015G30KT 1200 TSRA SCT055CB LFJL 191200Z AUTO 22012KT CAVOK 29/16 Q1019 TEMPO 28015G30KT 1200 TSRA SCT055CB LFJL 191130Z AUTO 22012KT 190V260 CAVOK 29/15 Q1019 TEMPO 28015G30KT 1200 TSRA SCT055CB LFJL 191100Z AUTO 21009KT 170V250 CAVOK 28/16 Q1019 TEMPO 28015G30KT 1200 TSRA SCT055CB LFJL 191030Z AUTO 21010KT 180V250 CAVOK 28/16 Q1019 TEMPO 28015G30KT 1200 TSRA SCT055CB LFJL 191000Z AUTO 20010KT 170V230 CAVOK 26/16 Q1020 TEMPO SHRA FEW060CB LFJL 190930Z AUTO 17010KT 140V200 CAVOK 26/16 Q1019 TEMPO SHRA FEW060CB LFJL 190900Z AUTO 17013KT 9999 ///TCU 24/16 Q1019 NOSIG LFJL 190830Z AUTO 16012KT 9999 //////CB 23/16 Q1019 NOSIG LFJL 190800Z AUTO 16011KT 9999 //////TCU 22/15 Q1020 NOSIG LFJL 190730Z AUTO 16012KT CAVOK 22/14 Q1020 BECMG FEW060TCU LFJL 190700Z AUTO 16014KT CAVOK 21/14 Q1020 BECMG FEW060TCU LFJL 190630Z AUTO 15010KT CAVOK 20/13 Q1019 BECMG 21010KT FEW060TCU LFJL 190600Z AUTO 13008KT CAVOK 20/13 Q1019 BECMG 21010KT FEW060TCU LFJL 190530Z AUTO 12009KT CAVOK 18/12 Q1019 BECMG 21010KT FEW060TCU LFJL 190500Z AUTO 12010KT CAVOK 16/12 Q1019 TEMPO 18012KT SHRA FEW050CB LFJL 190430Z AUTO 08003KT 040V120 CAVOK 16/12 Q1019 TEMPO 18012KT SHRA FEW050CB LFJL 190400Z AUTO 12006KT CAVOK 15/11 Q1019 TEMPO 18012KT SHRA FEW050CB LFJL 190330Z AUTO 13006KT CAVOK 15/11 Q1019 TEMPO SHRA FEW050CB LFJL 190300Z AUTO 11004KT CAVOK 16/12 Q1019 TEMPO 18012KT SHRA FEW050CB LFJL 190230Z AUTO 12010KT CAVOK 17/11 Q1019 TEMPO 18012KT SHRA FEW050CB LFJL 190200Z AUTO 12013KT CAVOK 17/12 Q1018 NOSIG LFJL 190130Z AUTO 12010KT CAVOK 17/11 Q1019 NOSIG LFJL 190100Z AUTO 12013KT CAVOK 18/12 Q1018 NOSIG LFJL 190030Z AUTO 12012KT CAVOK 18/12 Q1018 NOSIG LFJL 190000Z AUTO 12010KT CAVOK 18/12 Q1019 NOSIG LFJL 182330Z AUTO 11011KT CAVOK 20/12 Q1019 NOSIG LFJL 182300Z AUTO 10012KT CAVOK 20/12 Q1019 NOSIG LFJL 182230Z AUTO 10011KT CAVOK 20/12 Q1019 NOSIG LFJL 182200Z AUTO 10010KT CAVOK 20/12 Q1019 NOSIG LFJL 182130Z AUTO 10010KT CAVOK 20/13 Q1019 NOSIG LFJL 182100Z AUTO 10009KT CAVOK 21/13 Q1019 NOSIG LFJL 182030Z AUTO 10010KT CAVOK 21/13 Q1019 NOSIG LFJL 182000Z AUTO 10008KT CAVOK 23/12 Q1019 NOSIG LFJL 181930Z AUTO 08009KT CAVOK 23/12 Q1019 NOSIG LFJL 181900Z AUTO 08007KT CAVOK 24/13 Q1019 NOSIG LFJL 181830Z AUTO 08006KT CAVOK 25/15 Q1019 NOSIG LFJL 181800Z AUTO 08006KT CAVOK 27/14 Q1019 NOSIG LFJL 181730Z AUTO 07006KT CAVOK 28/13 Q1019 NOSIG LFJL 181700Z AUTO 07007KT 050V110 CAVOK 28/12 Q1019 NOSIG LFJL 181630Z AUTO 10004KT 060V140 CAVOK 28/12 Q1019 NOSIG LFJL 181600Z AUTO 11004KT 050V190 CAVOK 29/11 Q1020 TEMPO FEW065TCU LFJL 181530Z AUTO 11004KT 040V150 CAVOK 29/10 Q1020 TEMPO FEW065TCU LFJL 181500Z AUTO 11006KT 060V160 CAVOK 29/11 Q1020 TEMPO FEW065TCU LFJL 181430Z AUTO 12005KT 070V170 CAVOK 29/11 Q1020 TEMPO FEW065TCU LFJL 181400Z AUTO 10004KT 050V150 CAVOK 29/11 Q1020 TEMPO FEW065TCU

METAR Messwerte "METZ-NANCY-LORRA" LFJL

Zurück zur Übersicht

Ortsname
Ländercode / m ü. NN
Zeit Temperatur Taupunkt Rel.
Luftfeuchte
Luftdruck:
Altimeter
NN
Station
Wind in Beaufort
(Knoten)
Sichtweite
(Meter)
Wolken
(Meter über Grund)
Wettererscheinung
METZ-NANCY-LORRA
FR 259
Do 19.05. 21:30231769 %1020
1019
989
NNW 2 (5)
Bald Übergang zu:
S 3 (10)
>= 10000Nicht signifikant 
METZ-NANCY-LORRA
FR 259
Do 19.05. 21:00241765 %1020
1019
989
NW 2 (5)>= 10000Nicht signifikant Bald zeitweise: Regen-Schauer
METZ-NANCY-LORRA
FR 259
Do 19.05. 20:30261758 %1020
1019
989
WNW 3 (8)>= 10000Nicht signifikant Bald zeitweise: Regen-Schauer
METZ-NANCY-LORRA
FR 259
Do 19.05. 20:00281855 %1020
1019
989
W 3 (8)
WSW - WNW
>= 10000  Bald zeitweise: Regen-Schauer
METZ-NANCY-LORRA
FR 259
Do 19.05. 19:30281751 %1019
1018
988
SSW 2 (5)
S - W
>= 10000  Bald zeitweise: Regen-Schauer
METZ-NANCY-LORRA
FR 259
Do 19.05. 19:00271858 %1019
1018
988
S 2 (6)>= 10000  Bald zeitweise: Regen-Schauer
METZ-NANCY-LORRA
FR 259
Do 19.05. 18:30281751 %1019
1018
988
SSW 3 (7)>= 10000  Bald zeitweise: Regen-Schauer
METZ-NANCY-LORRA
FR 259
Do 19.05. 18:00281751 %1019
1018
988
SW 3 (10)>= 10000  Bald zeitweise: Regen-Schauer
METZ-NANCY-LORRA
FR 259
Do 19.05. 17:30271858 %1019
1018
988
SSW 2 (6)
S - WSW
>= 10000  Bald zeitweise: Regen-Schauer
METZ-NANCY-LORRA
FR 259
Do 19.05. 17:00241974 %1019
1018
988
SSW 3 (8)
S - WSW
Bald zeitweise:
W 4 (15) - 7 (30)
>= 10000
Bald zeitweise: 1200
Stark bewölkt (4000)
Wolkig (1600)
Leicht bewölkt (940)
 Bald zeitweise: Gewitter mit Regen
METZ-NANCY-LORRA
FR 259
Do 19.05. 16:30251761 %1019
1018
988
S 4 (13)
Bald zeitweise:
W 4 (15) - 7 (30)
>= 10000
Bald zeitweise: 1200
  Bald zeitweise: Gewitter mit Regen
METZ-NANCY-LORRA
FR 259
Do 19.05. 16:00261654 %1020
1019
989
SSW 4 (14)
Bald zeitweise:
W 4 (15) - 7 (30)
>= 10000
Bald zeitweise: 1200
  Bald zeitweise: Gewitter mit Regen
METZ-NANCY-LORRA
FR 259
Do 19.05. 15:30281545 %1019
1018
988
SW 4 (11)
Bald zeitweise:
W 4 (15) - 7 (30)
>= 10000
Bald zeitweise: 1200
  Bald zeitweise: Gewitter mit Regen
METZ-NANCY-LORRA
FR 259
Do 19.05. 15:00291645 %1019
1018
988
WSW 3 (10)
SSW - W
Bald zeitweise:
W 4 (15) - 7 (30)
>= 10000
Bald zeitweise: 1200
Nicht signifikant Bald zeitweise: Gewitter mit Regen
METZ-NANCY-LORRA
FR 259
Do 19.05. 14:30301643 %1019
1017
988
WSW 4 (12)
Bald zeitweise:
W 4 (15) - 7 (30)
>= 10000
Bald zeitweise: 1200
Nicht signifikant Bald zeitweise: Gewitter mit Regen
METZ-NANCY-LORRA
FR 259
Do 19.05. 14:00291645 %1019
1018
988
SW 4 (12)
Bald zeitweise:
W 4 (15) - 7 (30)
>= 10000
Bald zeitweise: 1200
Nicht signifikant Bald zeitweise: Gewitter mit Regen
METZ-NANCY-LORRA
FR 259
Do 19.05. 13:30291543 %1019
1018
988
SW 4 (12)
S - W
Bald zeitweise:
W 4 (15) - 7 (30)
>= 10000
Bald zeitweise: 1200
Nicht signifikant Bald zeitweise: Gewitter mit Regen
METZ-NANCY-LORRA
FR 259
Do 19.05. 13:00281648 %1019
1018
988
SSW 3 (9)
S - WSW
Bald zeitweise:
W 4 (15) - 7 (30)
>= 10000
Bald zeitweise: 1200
Nicht signifikant Bald zeitweise: Gewitter mit Regen
METZ-NANCY-LORRA
FR 259
Do 19.05. 12:30281648 %1019
1018
988
SSW 3 (10)
S - WSW
Bald zeitweise:
W 4 (15) - 7 (30)
>= 10000
Bald zeitweise: 1200
Nicht signifikant Bald zeitweise: Gewitter mit Regen
METZ-NANCY-LORRA
FR 259
Do 19.05. 12:00261654 %1020
1019
989
SSW 3 (10)
S - SW
>= 10000Nicht signifikant Bald zeitweise: Regen-Schauer
METZ-NANCY-LORRA
FR 259
Do 19.05. 11:30261654 %1019
1018
988
S 3 (10)
SO - SSW
>= 10000Nicht signifikant Bald zeitweise: Regen-Schauer
METZ-NANCY-LORRA
FR 259
Do 19.05. 11:00241661 %1019
1018
988
S 4 (13)>= 10000  
METZ-NANCY-LORRA
FR 259
Do 19.05. 10:30231665 %1019
1018
988
SSO 4 (12)>= 10000  
METZ-NANCY-LORRA
FR 259
Do 19.05. 10:00221565 %1020
1019
989
SSO 4 (11)>= 10000  
METZ-NANCY-LORRA
FR 259
Do 19.05. 09:30221460 %1020
1019
989
SSO 4 (12)>= 10000Nicht signifikant 
METZ-NANCY-LORRA
FR 259
Do 19.05. 09:00211464 %1020
1019
989
SSO 4 (14)>= 10000Nicht signifikant 
METZ-NANCY-LORRA
FR 259
Do 19.05. 08:30201364 %1019
1019
988
SSO 3 (10)
Bald Übergang zu:
SSW 3 (10)
>= 10000Nicht signifikant 
METZ-NANCY-LORRA
FR 259
Do 19.05. 08:00201364 %1019
1019
988
SO 3 (8)
Bald Übergang zu:
SSW 3 (10)
>= 10000Nicht signifikant 
METZ-NANCY-LORRA
FR 259
Do 19.05. 07:30181268 %1019
1019
988
OSO 3 (9)
Bald Übergang zu:
SSW 3 (10)
>= 10000Nicht signifikant 
METZ-NANCY-LORRA
FR 259
Do 19.05. 07:00161277 %1019
1019
988
OSO 3 (10)
Bald zeitweise:
S 4 (12)
>= 10000Nicht signifikant Bald zeitweise: Regen-Schauer
METZ-NANCY-LORRA
FR 259
Do 19.05. 06:30161277 %1019
1019
988
O 2 (3)
NO - OSO
Bald zeitweise:
S 4 (12)
>= 10000Nicht signifikant Bald zeitweise: Regen-Schauer
METZ-NANCY-LORRA
FR 259
Do 19.05. 06:00151177 %1019
1019
988
OSO 2 (6)
Bald zeitweise:
S 4 (12)
>= 10000Nicht signifikant Bald zeitweise: Regen-Schauer
METZ-NANCY-LORRA
FR 259
Do 19.05. 05:30151177 %1019
1019
988
SO 2 (6)>= 10000Nicht signifikant Bald zeitweise: Regen-Schauer
METZ-NANCY-LORRA
FR 259
Do 19.05. 05:00161277 %1019
1019
988
OSO 2 (4)
Bald zeitweise:
S 4 (12)
>= 10000Nicht signifikant Bald zeitweise: Regen-Schauer
METZ-NANCY-LORRA
FR 259
Do 19.05. 04:30171168 %1019
1019
988
OSO 3 (10)
Bald zeitweise:
S 4 (12)
>= 10000Nicht signifikant Bald zeitweise: Regen-Schauer
METZ-NANCY-LORRA
FR 259
Do 19.05. 04:00171272 %1018
1018
987
OSO 4 (13)>= 10000Nicht signifikant 
METZ-NANCY-LORRA
FR 259
Do 19.05. 03:30171168 %1019
1019
988
OSO 3 (10)>= 10000Nicht signifikant 
METZ-NANCY-LORRA
FR 259
Do 19.05. 03:00181268 %1018
1018
987
OSO 4 (13)>= 10000Nicht signifikant 
METZ-NANCY-LORRA
FR 259
Do 19.05. 02:30181268 %1018
1018
987
OSO 4 (12)>= 10000Nicht signifikant 
METZ-NANCY-LORRA
FR 259
Do 19.05. 02:00181268 %1019
1019
988
OSO 3 (10)>= 10000Nicht signifikant 
METZ-NANCY-LORRA
FR 259
Do 19.05. 01:30201260 %1019
1019
988
OSO 4 (11)>= 10000Nicht signifikant 
METZ-NANCY-LORRA
FR 259
Do 19.05. 01:00201260 %1019
1019
988
O 4 (12)>= 10000Nicht signifikant 
METZ-NANCY-LORRA
FR 259
Do 19.05. 00:30201260 %1019
1019
988
O 4 (11)>= 10000Nicht signifikant 
METZ-NANCY-LORRA
FR 259
Do 19.05. 00:00201260 %1019
1019
988
O 3 (10)>= 10000Nicht signifikant 
METZ-NANCY-LORRA
FR 259
Mi 18.05. 23:30201364 %1019
1019
988
O 3 (10)>= 10000Nicht signifikant 
METZ-NANCY-LORRA
FR 259
Mi 18.05. 23:00211360 %1019
1018
988
O 3 (9)>= 10000Nicht signifikant 
METZ-NANCY-LORRA
FR 259
Mi 18.05. 22:30211360 %1019
1018
988
O 3 (10)>= 10000Nicht signifikant 
METZ-NANCY-LORRA
FR 259
Mi 18.05. 22:00231250 %1019
1018
988
O 3 (8)>= 10000Nicht signifikant 
METZ-NANCY-LORRA
FR 259
Mi 18.05. 21:30231250 %1019
1018
988
O 3 (9)>= 10000Nicht signifikant 
METZ-NANCY-LORRA
FR 259
Mi 18.05. 21:00241350 %1019
1018
988
O 3 (7)>= 10000Nicht signifikant 
METZ-NANCY-LORRA
FR 259
Mi 18.05. 20:30251554 %1019
1018
988
O 2 (6)>= 10000Nicht signifikant 
METZ-NANCY-LORRA
FR 259
Mi 18.05. 20:00271445 %1019
1018
988
O 2 (6)>= 10000Nicht signifikant 
METZ-NANCY-LORRA
FR 259
Mi 18.05. 19:30281340 %1019
1018
988
ONO 2 (6)>= 10000Nicht signifikant 
METZ-NANCY-LORRA
FR 259
Mi 18.05. 19:00281237 %1019
1018
988
ONO 3 (7)
NO - OSO
>= 10000Nicht signifikant 
METZ-NANCY-LORRA
FR 259
Mi 18.05. 18:30281237 %1019
1018
988
O 2 (4)
ONO - SO
>= 10000Nicht signifikant 
METZ-NANCY-LORRA
FR 259
Mi 18.05. 18:00291133 %1020
1019
989
OSO 2 (4)
NO - S
>= 10000Nicht signifikant 
METZ-NANCY-LORRA
FR 259
Mi 18.05. 17:30291031 %1020
1019
989
OSO 2 (4)
NO - SSO
>= 10000Nicht signifikant 
METZ-NANCY-LORRA
FR 259
Mi 18.05. 17:00291133 %1020
1019
989
OSO 2 (6)
ONO - SSO
>= 10000Nicht signifikant 
METZ-NANCY-LORRA
FR 259
Mi 18.05. 16:30291133 %1020
1019
989
OSO 2 (5)
ONO - S
>= 10000Nicht signifikant 
METZ-NANCY-LORRA
FR 259
Mi 18.05. 16:00291133 %1020
1019
989
O 2 (4)
NO - SSO
>= 10000Nicht signifikant 

Altimeter: Einstellung am Altimeter (Höhenmesser), die Höhe 0 muss auf diesen Luftdruckwert zeigen, damit das Gerät die Stationshöhe richtig anzeigt.

NN: Luftdruck reduziert auf "Normal Null", auf Meereshöhe, dieser von der Temperatur abhängige Wert wird bisweilen unkorrekt einfach als "Luftdruck" bezeichnet. Eigentlich nur eine fiktive Größe, die es erlaubt, Stationen auf unterschiedlichen Höhen miteinander zu vergleichen.

Station: Realer Luftdruck an der Station.